sensor_id;sensor_type;location;lat;lon;timestamp;P1;durP1;ratioP1;P2;durP2;ratioP2
19891;SDS011;10108;50.142;8.724;2023-03-19T00:00:06;22.90;;;12.13;;
19891;SDS011;10108;50.142;8.724;2023-03-19T00:02:34;21.42;;;12.45;;
19891;SDS011;10108;50.142;8.724;2023-03-19T00:05:01;20.35;;;12.38;;
19891;SDS011;10108;50.142;8.724;2023-03-19T00:07:30;20.98;;;12.13;;
19891;SDS011;10108;50.142;8.724;2023-03-19T00:09:56;23.75;;;12.15;;
19891;SDS011;10108;50.142;8.724;2023-03-19T00:12:22;20.38;;;12.57;;
19891;SDS011;10108;50.142;8.724;2023-03-19T00:14:48;23.30;;;12.13;;
19891;SDS011;10108;50.142;8.724;2023-03-19T00:17:18;27.40;;;12.55;;
19891;SDS011;10108;50.142;8.724;2023-03-19T00:19:44;21.98;;;12.43;;
19891;SDS011;10108;50.142;8.724;2023-03-19T00:22:12;23.58;;;12.73;;
19891;SDS011;10108;50.142;8.724;2023-03-19T00:24:38;19.80;;;13.15;;
19891;SDS011;10108;50.142;8.724;2023-03-19T00:27:07;28.15;;;14.93;;
19891;SDS011;10108;50.142;8.724;2023-03-19T00:29:33;22.17;;;13.63;;
19891;SDS011;10108;50.142;8.724;2023-03-19T00:31:59;25.52;;;13.98;;
19891;SDS011;10108;50.142;8.724;2023-03-19T00:34:25;20.65;;;13.23;;
19891;SDS011;10108;50.142;8.724;2023-03-19T00:36:54;23.67;;;14.02;;
19891;SDS011;10108;50.142;8.724;2023-03-19T00:39:21;20.58;;;14.25;;
19891;SDS011;10108;50.142;8.724;2023-03-19T00:41:48;24.45;;;14.68;;
19891;SDS011;10108;50.142;8.724;2023-03-19T00:44:16;26.40;;;14.32;;
19891;SDS011;10108;50.142;8.724;2023-03-19T00:46:44;23.20;;;13.23;;
19891;SDS011;10108;50.142;8.724;2023-03-19T00:49:12;22.20;;;13.05;;
19891;SDS011;10108;50.142;8.724;2023-03-19T00:51:38;21.20;;;12.95;;
19891;SDS011;10108;50.142;8.724;2023-03-19T00:54:09;20.33;;;13.15;;
19891;SDS011;10108;50.142;8.724;2023-03-19T00:56:37;22.30;;;12.98;;
19891;SDS011;10108;50.142;8.724;2023-03-19T00:59:04;23.98;;;12.77;;
19891;SDS011;10108;50.142;8.724;2023-03-19T01:01:31;22.02;;;12.43;;
19891;SDS011;10108;50.142;8.724;2023-03-19T01:03:57;20.65;;;12.80;;
19891;SDS011;10108;50.142;8.724;2023-03-19T01:06:23;26.08;;;12.73;;
19891;SDS011;10108;50.142;8.724;2023-03-19T01:08:50;17.77;;;11.40;;
19891;SDS011;10108;50.142;8.724;2023-03-19T01:11:16;19.38;;;12.13;;
19891;SDS011;10108;50.142;8.724;2023-03-19T01:13:43;22.13;;;12.23;;
19891;SDS011;10108;50.142;8.724;2023-03-19T01:16:14;20.50;;;11.45;;
19891;SDS011;10108;50.142;8.724;2023-03-19T01:18:43;21.40;;;11.57;;
19891;SDS011;10108;50.142;8.724;2023-03-19T01:21:09;19.30;;;12.10;;
19891;SDS011;10108;50.142;8.724;2023-03-19T01:23:42;19.67;;;12.43;;
19891;SDS011;10108;50.142;8.724;2023-03-19T01:26:10;24.65;;;12.20;;
19891;SDS011;10108;50.142;8.724;2023-03-19T01:28:37;23.73;;;12.63;;
19891;SDS011;10108;50.142;8.724;2023-03-19T01:31:05;19.05;;;11.65;;
19891;SDS011;10108;50.142;8.724;2023-03-19T01:33:50;18.88;;;11.43;;
19891;SDS011;10108;50.142;8.724;2023-03-19T01:36:38;18.05;;;11.55;;
19891;SDS011;10108;50.142;8.724;2023-03-19T01:39:05;18.05;;;11.60;;
19891;SDS011;10108;50.142;8.724;2023-03-19T01:41:35;21.60;;;11.55;;
19891;SDS011;10108;50.142;8.724;2023-03-19T01:44:34;23.17;;;11.40;;
19891;SDS011;10108;50.142;8.724;2023-03-19T01:50:29;17.85;;;11.60;;
19891;SDS011;10108;50.142;8.724;2023-03-19T01:53:30;22.73;;;11.60;;
19891;SDS011;10108;50.142;8.724;2023-03-19T01:56:22;20.73;;;11.15;;
19891;SDS011;10108;50.142;8.724;2023-03-19T01:59:27;18.02;;;11.13;;
19891;SDS011;10108;50.142;8.724;2023-03-19T02:02:05;18.05;;;10.98;;
19891;SDS011;10108;50.142;8.724;2023-03-19T02:04:39;19.95;;;11.38;;
19891;SDS011;10108;50.142;8.724;2023-03-19T02:07:07;24.13;;;11.90;;
19891;SDS011;10108;50.142;8.724;2023-03-19T02:09:34;17.83;;;11.27;;
19891;SDS011;10108;50.142;8.724;2023-03-19T02:12:02;18.95;;;11.30;;
19891;SDS011;10108;50.142;8.724;2023-03-19T02:14:30;21.17;;;11.77;;
19891;SDS011;10108;50.142;8.724;2023-03-19T02:16:56;17.23;;;11.52;;
19891;SDS011;10108;50.142;8.724;2023-03-19T02:19:27;15.90;;;10.45;;
19891;SDS011;10108;50.142;8.724;2023-03-19T02:22:01;19.05;;;11.52;;
19891;SDS011;10108;50.142;8.724;2023-03-19T02:24:31;19.58;;;10.70;;
19891;SDS011;10108;50.142;8.724;2023-03-19T02:27:03;18.30;;;10.68;;
19891;SDS011;10108;50.142;8.724;2023-03-19T02:29:32;18.63;;;11.00;;
19891;SDS011;10108;50.142;8.724;2023-03-19T02:31:59;17.83;;;10.80;;
19891;SDS011;10108;50.142;8.724;2023-03-19T02:36:59;20.90;;;10.68;;
19891;SDS011;10108;50.142;8.724;2023-03-19T02:39:35;18.25;;;10.88;;
19891;SDS011;10108;50.142;8.724;2023-03-19T02:42:09;17.40;;;10.68;;
19891;SDS011;10108;50.142;8.724;2023-03-19T02:44:37;16.25;;;10.23;;
19891;SDS011;10108;50.142;8.724;2023-03-19T02:47:04;20.73;;;11.30;;
19891;SDS011;10108;50.142;8.724;2023-03-19T02:49:30;17.88;;;10.20;;
19891;SDS011;10108;50.142;8.724;2023-03-19T02:51:56;19.17;;;10.32;;
19891;SDS011;10108;50.142;8.724;2023-03-19T02:54:22;18.63;;;11.02;;
19891;SDS011;10108;50.142;8.724;2023-03-19T02:56:48;19.85;;;11.20;;
19891;SDS011;10108;50.142;8.724;2023-03-19T02:59:17;18.23;;;10.90;;
19891;SDS011;10108;50.142;8.724;2023-03-19T03:01:43;17.75;;;10.30;;
19891;SDS011;10108;50.142;8.724;2023-03-19T03:04:09;19.90;;;10.77;;
19891;SDS011;10108;50.142;8.724;2023-03-19T03:06:36;17.38;;;10.40;;
19891;SDS011;10108;50.142;8.724;2023-03-19T03:09:02;16.67;;;10.20;;
19891;SDS011;10108;50.142;8.724;2023-03-19T03:11:29;15.32;;;9.77;;
19891;SDS011;10108;50.142;8.724;2023-03-19T03:13:55;18.70;;;10.10;;
19891;SDS011;10108;50.142;8.724;2023-03-19T03:16:23;18.63;;;10.02;;
19891;SDS011;10108;50.142;8.724;2023-03-19T03:18:50;19.42;;;10.52;;
19891;SDS011;10108;50.142;8.724;2023-03-19T03:21:18;14.27;;;9.63;;
19891;SDS011;10108;50.142;8.724;2023-03-19T03:23:46;17.42;;;10.52;;
19891;SDS011;10108;50.142;8.724;2023-03-19T03:26:13;17.17;;;9.20;;
19891;SDS011;10108;50.142;8.724;2023-03-19T03:28:39;16.90;;;9.75;;
19891;SDS011;10108;50.142;8.724;2023-03-19T03:31:08;16.40;;;9.55;;
19891;SDS011;10108;50.142;8.724;2023-03-19T03:33:38;16.95;;;9.73;;
19891;SDS011;10108;50.142;8.724;2023-03-19T03:36:05;21.15;;;10.15;;
19891;SDS011;10108;50.142;8.724;2023-03-19T03:38:31;15.20;;;9.57;;
19891;SDS011;10108;50.142;8.724;2023-03-19T03:40:58;18.20;;;10.02;;
19891;SDS011;10108;50.142;8.724;2023-03-19T03:43:25;17.67;;;10.10;;
19891;SDS011;10108;50.142;8.724;2023-03-19T03:45:51;19.67;;;10.00;;
19891;SDS011;10108;50.142;8.724;2023-03-19T03:48:19;19.10;;;9.90;;
19891;SDS011;10108;50.142;8.724;2023-03-19T03:50:47;20.63;;;9.85;;
19891;SDS011;10108;50.142;8.724;2023-03-19T03:53:17;15.55;;;9.38;;
19891;SDS011;10108;50.142;8.724;2023-03-19T03:55:44;16.67;;;9.95;;
19891;SDS011;10108;50.142;8.724;2023-03-19T03:58:11;19.83;;;9.68;;
19891;SDS011;10108;50.142;8.724;2023-03-19T04:00:37;18.23;;;10.02;;
19891;SDS011;10108;50.142;8.724;2023-03-19T04:03:03;16.25;;;9.65;;
19891;SDS011;10108;50.142;8.724;2023-03-19T04:05:30;19.83;;;9.48;;
19891;SDS011;10108;50.142;8.724;2023-03-19T04:07:56;17.10;;;9.65;;
19891;SDS011;10108;50.142;8.724;2023-03-19T04:10:23;16.48;;;10.13;;
19891;SDS011;10108;50.142;8.724;2023-03-19T04:12:50;16.52;;;9.40;;
19891;SDS011;10108;50.142;8.724;2023-03-19T04:15:16;14.75;;;9.57;;
19891;SDS011;10108;50.142;8.724;2023-03-19T04:17:56;17.13;;;9.82;;
19891;SDS011;10108;50.142;8.724;2023-03-19T04:20:22;17.40;;;10.30;;
19891;SDS011;10108;50.142;8.724;2023-03-19T04:22:53;15.15;;;8.93;;
19891;SDS011;10108;50.142;8.724;2023-03-19T04:25:24;16.52;;;9.40;;
19891;SDS011;10108;50.142;8.724;2023-03-19T04:27:51;19.30;;;10.02;;
19891;SDS011;10108;50.142;8.724;2023-03-19T04:30:22;18.08;;;9.57;;
19891;SDS011;10108;50.142;8.724;2023-03-19T04:32:51;15.00;;;9.18;;
19891;SDS011;10108;50.142;8.724;2023-03-19T04:35:25;18.73;;;9.80;;
19891;SDS011;10108;50.142;8.724;2023-03-19T04:38:00;17.20;;;9.05;;
19891;SDS011;10108;50.142;8.724;2023-03-19T04:40:31;14.35;;;9.43;;
19891;SDS011;10108;50.142;8.724;2023-03-19T04:42:58;16.75;;;9.40;;
19891;SDS011;10108;50.142;8.724;2023-03-19T04:45:31;18.83;;;9.43;;
19891;SDS011;10108;50.142;8.724;2023-03-19T04:48:00;17.63;;;9.63;;
19891;SDS011;10108;50.142;8.724;2023-03-19T04:50:32;17.95;;;9.63;;
19891;SDS011;10108;50.142;8.724;2023-03-19T04:53:00;14.35;;;9.15;;
19891;SDS011;10108;50.142;8.724;2023-03-19T04:55:28;17.65;;;9.52;;
19891;SDS011;10108;50.142;8.724;2023-03-19T04:58:03;17.00;;;9.43;;
19891;SDS011;10108;50.142;8.724;2023-03-19T05:00:31;13.68;;;9.43;;
19891;SDS011;10108;50.142;8.724;2023-03-19T05:03:01;16.63;;;9.63;;
19891;SDS011;10108;50.142;8.724;2023-03-19T05:05:29;16.27;;;9.85;;
19891;SDS011;10108;50.142;8.724;2023-03-19T05:07:56;16.02;;;9.50;;
19891;SDS011;10108;50.142;8.724;2023-03-19T05:10:24;18.17;;;8.63;;
19891;SDS011;10108;50.142;8.724;2023-03-19T05:12:51;16.67;;;9.32;;
19891;SDS011;10108;50.142;8.724;2023-03-19T05:15:18;14.23;;;8.23;;
19891;SDS011;10108;50.142;8.724;2023-03-19T05:17:59;14.05;;;8.93;;
19891;SDS011;10108;50.142;8.724;2023-03-19T05:20:39;13.95;;;8.18;;
19891;SDS011;10108;50.142;8.724;2023-03-19T05:23:14;15.45;;;7.95;;
19891;SDS011;10108;50.142;8.724;2023-03-19T05:25:50;13.48;;;8.13;;
19891;SDS011;10108;50.142;8.724;2023-03-19T05:28:28;13.65;;;8.07;;
19891;SDS011;10108;50.142;8.724;2023-03-19T05:30:57;12.88;;;7.68;;
19891;SDS011;10108;50.142;8.724;2023-03-19T05:33:33;14.57;;;7.78;;
19891;SDS011;10108;50.142;8.724;2023-03-19T05:36:00;14.50;;;7.68;;
19891;SDS011;10108;50.142;8.724;2023-03-19T05:38:41;13.05;;;8.15;;
19891;SDS011;10108;50.142;8.724;2023-03-19T05:41:14;13.25;;;8.02;;
19891;SDS011;10108;50.142;8.724;2023-03-19T05:43:50;13.88;;;7.93;;
19891;SDS011;10108;50.142;8.724;2023-03-19T05:46:32;12.35;;;7.78;;
19891;SDS011;10108;50.142;8.724;2023-03-19T05:48:59;14.20;;;7.53;;
19891;SDS011;10108;50.142;8.724;2023-03-19T05:51:26;16.38;;;8.75;;
19891;SDS011;10108;50.142;8.724;2023-03-19T05:53:52;14.60;;;7.40;;
19891;SDS011;10108;50.142;8.724;2023-03-19T05:56:32;13.57;;;7.38;;
19891;SDS011;10108;50.142;8.724;2023-03-19T05:59:16;16.20;;;7.60;;
19891;SDS011;10108;50.142;8.724;2023-03-19T06:01:50;13.60;;;7.03;;
19891;SDS011;10108;50.142;8.724;2023-03-19T06:04:16;13.93;;;7.70;;
19891;SDS011;10108;50.142;8.724;2023-03-19T06:06:42;13.85;;;7.50;;
19891;SDS011;10108;50.142;8.724;2023-03-19T06:09:09;13.85;;;7.70;;
19891;SDS011;10108;50.142;8.724;2023-03-19T06:11:39;11.82;;;7.45;;
19891;SDS011;10108;50.142;8.724;2023-03-19T06:14:25;15.05;;;8.45;;
19891;SDS011;10108;50.142;8.724;2023-03-19T06:17:11;13.13;;;7.20;;
19891;SDS011;10108;50.142;8.724;2023-03-19T06:19:37;14.07;;;7.68;;
19891;SDS011;10108;50.142;8.724;2023-03-19T06:22:06;14.50;;;7.28;;
19891;SDS011;10108;50.142;8.724;2023-03-19T06:24:33;11.68;;;7.47;;
19891;SDS011;10108;50.142;8.724;2023-03-19T06:27:00;14.85;;;7.30;;
19891;SDS011;10108;50.142;8.724;2023-03-19T06:29:26;12.65;;;7.00;;
19891;SDS011;10108;50.142;8.724;2023-03-19T06:32:01;15.20;;;7.10;;
19891;SDS011;10108;50.142;8.724;2023-03-19T06:34:38;15.40;;;7.35;;
19891;SDS011;10108;50.142;8.724;2023-03-19T06:37:07;15.65;;;7.72;;
19891;SDS011;10108;50.142;8.724;2023-03-19T06:39:36;13.80;;;7.57;;
19891;SDS011;10108;50.142;8.724;2023-03-19T06:42:04;14.65;;;7.35;;
19891;SDS011;10108;50.142;8.724;2023-03-19T06:44:31;14.40;;;7.20;;
19891;SDS011;10108;50.142;8.724;2023-03-19T06:47:00;12.23;;;7.35;;
19891;SDS011;10108;50.142;8.724;2023-03-19T06:49:41;13.70;;;7.18;;
19891;SDS011;10108;50.142;8.724;2023-03-19T06:52:17;12.35;;;7.28;;
19891;SDS011;10108;50.142;8.724;2023-03-19T06:54:45;11.95;;;6.82;;
19891;SDS011;10108;50.142;8.724;2023-03-19T06:57:14;14.73;;;6.45;;
19891;SDS011;10108;50.142;8.724;2023-03-19T06:59:41;12.32;;;6.97;;
19891;SDS011;10108;50.142;8.724;2023-03-19T07:02:10;16.63;;;7.47;;
19891;SDS011;10108;50.142;8.724;2023-03-19T07:04:39;13.25;;;7.28;;
19891;SDS011;10108;50.142;8.724;2023-03-19T07:07:06;12.35;;;7.60;;
19891;SDS011;10108;50.142;8.724;2023-03-19T07:09:35;15.10;;;7.63;;
19891;SDS011;10108;50.142;8.724;2023-03-19T07:12:05;14.27;;;7.65;;
19891;SDS011;10108;50.142;8.724;2023-03-19T07:14:33;13.45;;;7.65;;
19891;SDS011;10108;50.142;8.724;2023-03-19T07:17:01;13.93;;;7.80;;
19891;SDS011;10108;50.142;8.724;2023-03-19T07:19:29;14.85;;;8.77;;
19891;SDS011;10108;50.142;8.724;2023-03-19T07:21:55;13.18;;;8.00;;
19891;SDS011;10108;50.142;8.724;2023-03-19T07:24:25;14.57;;;7.72;;
19891;SDS011;10108;50.142;8.724;2023-03-19T07:26:51;13.77;;;7.80;;
19891;SDS011;10108;50.142;8.724;2023-03-19T07:29:18;14.30;;;8.00;;
19891;SDS011;10108;50.142;8.724;2023-03-19T07:31:45;15.15;;;8.18;;
19891;SDS011;10108;50.142;8.724;2023-03-19T07:34:12;16.33;;;8.43;;
19891;SDS011;10108;50.142;8.724;2023-03-19T07:36:39;13.65;;;7.63;;
19891;SDS011;10108;50.142;8.724;2023-03-19T07:39:05;13.68;;;7.72;;
19891;SDS011;10108;50.142;8.724;2023-03-19T07:41:33;18.55;;;7.97;;
19891;SDS011;10108;50.142;8.724;2023-03-19T07:44:01;19.45;;;8.57;;
19891;SDS011;10108;50.142;8.724;2023-03-19T07:46:29;15.60;;;8.02;;
19891;SDS011;10108;50.142;8.724;2023-03-19T07:48:57;14.60;;;7.53;;
19891;SDS011;10108;50.142;8.724;2023-03-19T07:51:25;11.85;;;7.47;;
19891;SDS011;10108;50.142;8.724;2023-03-19T07:53:51;14.77;;;7.85;;
19891;SDS011;10108;50.142;8.724;2023-03-19T07:56:18;12.05;;;7.00;;
19891;SDS011;10108;50.142;8.724;2023-03-19T07:58:45;11.65;;;7.32;;
19891;SDS011;10108;50.142;8.724;2023-03-19T08:01:13;13.43;;;7.25;;
19891;SDS011;10108;50.142;8.724;2023-03-19T08:03:40;12.95;;;7.07;;
19891;SDS011;10108;50.142;8.724;2023-03-19T08:06:07;13.65;;;6.80;;
19891;SDS011;10108;50.142;8.724;2023-03-19T08:08:33;11.20;;;7.05;;
19891;SDS011;10108;50.142;8.724;2023-03-19T08:11:06;12.63;;;7.13;;
19891;SDS011;10108;50.142;8.724;2023-03-19T08:13:35;10.57;;;6.68;;
19891;SDS011;10108;50.142;8.724;2023-03-19T08:16:03;13.60;;;7.40;;
19891;SDS011;10108;50.142;8.724;2023-03-19T08:18:33;15.43;;;7.45;;
19891;SDS011;10108;50.142;8.724;2023-03-19T08:21:01;12.95;;;6.70;;
19891;SDS011;10108;50.142;8.724;2023-03-19T08:23:30;12.90;;;7.03;;
19891;SDS011;10108;50.142;8.724;2023-03-19T08:26:00;18.45;;;7.95;;
19891;SDS011;10108;50.142;8.724;2023-03-19T08:28:28;14.80;;;7.22;;
19891;SDS011;10108;50.142;8.724;2023-03-19T08:30:55;16.00;;;7.28;;
19891;SDS011;10108;50.142;8.724;2023-03-19T08:33:21;12.57;;;7.15;;
19891;SDS011;10108;50.142;8.724;2023-03-19T08:36:02;12.35;;;6.32;;
19891;SDS011;10108;50.142;8.724;2023-03-19T08:38:31;12.25;;;6.43;;
19891;SDS011;10108;50.142;8.724;2023-03-19T08:40:57;13.73;;;6.90;;
19891;SDS011;10108;50.142;8.724;2023-03-19T08:43:29;11.35;;;6.28;;
19891;SDS011;10108;50.142;8.724;2023-03-19T08:46:03;13.05;;;6.88;;
19891;SDS011;10108;50.142;8.724;2023-03-19T08:48:31;13.30;;;6.75;;
19891;SDS011;10108;50.142;8.724;2023-03-19T08:51:02;10.82;;;6.70;;
19891;SDS011;10108;50.142;8.724;2023-03-19T08:53:31;13.45;;;7.38;;
19891;SDS011;10108;50.142;8.724;2023-03-19T08:56:01;15.10;;;7.22;;
19891;SDS011;10108;50.142;8.724;2023-03-19T08:58:28;12.90;;;7.38;;
19891;SDS011;10108;50.142;8.724;2023-03-19T09:01:28;13.90;;;7.00;;
19891;SDS011;10108;50.142;8.724;2023-03-19T09:03:48;14.35;;;6.90;;
19891;SDS011;10108;50.142;8.724;2023-03-19T09:06:15;13.32;;;7.13;;
19891;SDS011;10108;50.142;8.724;2023-03-19T09:08:46;17.63;;;7.32;;
19891;SDS011;10108;50.142;8.724;2023-03-19T09:11:12;13.07;;;7.20;;
19891;SDS011;10108;50.142;8.724;2023-03-19T09:13:43;15.02;;;7.20;;
19891;SDS011;10108;50.142;8.724;2023-03-19T09:16:12;13.23;;;6.90;;
19891;SDS011;10108;50.142;8.724;2023-03-19T09:18:45;12.13;;;6.75;;
19891;SDS011;10108;50.142;8.724;2023-03-19T09:21:12;11.73;;;6.78;;
19891;SDS011;10108;50.142;8.724;2023-03-19T09:23:38;11.65;;;6.43;;
19891;SDS011;10108;50.142;8.724;2023-03-19T09:26:04;10.68;;;6.47;;
19891;SDS011;10108;50.142;8.724;2023-03-19T09:28:31;13.85;;;6.18;;
19891;SDS011;10108;50.142;8.724;2023-03-19T09:30:57;10.95;;;6.05;;
19891;SDS011;10108;50.142;8.724;2023-03-19T09:33:31;9.68;;;5.97;;
19891;SDS011;10108;50.142;8.724;2023-03-19T09:35:58;10.57;;;5.85;;
19891;SDS011;10108;50.142;8.724;2023-03-19T09:38:24;8.95;;;5.68;;
19891;SDS011;10108;50.142;8.724;2023-03-19T09:41:02;10.30;;;6.50;;
19891;SDS011;10108;50.142;8.724;2023-03-19T09:46:27;11.75;;;6.43;;
19891;SDS011;10108;50.142;8.724;2023-03-19T09:49:11;9.55;;;5.57;;
19891;SDS011;10108;50.142;8.724;2023-03-19T09:51:40;10.38;;;5.35;;
19891;SDS011;10108;50.142;8.724;2023-03-19T09:54:19;9.95;;;5.53;;
19891;SDS011;10108;50.142;8.724;2023-03-19T09:56:47;9.60;;;5.80;;
19891;SDS011;10108;50.142;8.724;2023-03-19T09:59:14;10.40;;;5.40;;
19891;SDS011;10108;50.142;8.724;2023-03-19T10:01:40;11.95;;;6.00;;
19891;SDS011;10108;50.142;8.724;2023-03-19T10:04:30;13.32;;;5.75;;
19891;SDS011;10108;50.142;8.724;2023-03-19T10:07:09;12.77;;;5.95;;
19891;SDS011;10108;50.142;8.724;2023-03-19T10:09:48;13.27;;;6.13;;
19891;SDS011;10108;50.142;8.724;2023-03-19T10:12:25;10.55;;;6.20;;
19891;SDS011;10108;50.142;8.724;2023-03-19T10:17:38;10.52;;;5.95;;
19891;SDS011;10108;50.142;8.724;2023-03-19T10:22:34;8.68;;;5.60;;
19891;SDS011;10108;50.142;8.724;2023-03-19T10:25:04;9.52;;;5.60;;
19891;SDS011;10108;50.142;8.724;2023-03-19T10:27:41;11.10;;;5.55;;
19891;SDS011;10108;50.142;8.724;2023-03-19T10:30:15;10.23;;;6.03;;
19891;SDS011;10108;50.142;8.724;2023-03-19T10:32:43;9.48;;;6.03;;
19891;SDS011;10108;50.142;8.724;2023-03-19T10:35:20;11.68;;;5.90;;
19891;SDS011;10108;50.142;8.724;2023-03-19T10:37:47;10.48;;;5.55;;
19891;SDS011;10108;50.142;8.724;2023-03-19T10:40:18;9.20;;;5.50;;
19891;SDS011;10108;50.142;8.724;2023-03-19T10:43:03;10.57;;;5.63;;
19891;SDS011;10108;50.142;8.724;2023-03-19T10:45:38;10.52;;;5.32;;
19891;SDS011;10108;50.142;8.724;2023-03-19T10:48:11;9.32;;;5.50;;
19891;SDS011;10108;50.142;8.724;2023-03-19T10:50:49;10.95;;;5.55;;
19891;SDS011;10108;50.142;8.724;2023-03-19T10:53:26;8.35;;;5.20;;
19891;SDS011;10108;50.142;8.724;2023-03-19T10:56:14;9.18;;;4.93;;
19891;SDS011;10108;50.142;8.724;2023-03-19T10:59:00;7.75;;;5.00;;
19891;SDS011;10108;50.142;8.724;2023-03-19T11:04:12;9.70;;;4.43;;
19891;SDS011;10108;50.142;8.724;2023-03-19T11:06:39;11.05;;;4.85;;
19891;SDS011;10108;50.142;8.724;2023-03-19T11:11:48;6.70;;;4.65;;
19891;SDS011;10108;50.142;8.724;2023-03-19T11:14:34;8.27;;;4.63;;
19891;SDS011;10108;50.142;8.724;2023-03-19T11:19:31;6.72;;;4.30;;
19891;SDS011;10108;50.142;8.724;2023-03-19T11:24:25;9.45;;;4.88;;
19891;SDS011;10108;50.142;8.724;2023-03-19T11:26:54;7.30;;;4.72;;
19891;SDS011;10108;50.142;8.724;2023-03-19T11:29:22;7.45;;;4.20;;
19891;SDS011;10108;50.142;8.724;2023-03-19T11:31:53;8.07;;;4.78;;
19891;SDS011;10108;50.142;8.724;2023-03-19T11:37:03;9.30;;;4.70;;
19891;SDS011;10108;50.142;8.724;2023-03-19T11:56:19;5.13;;;3.88;;
19891;SDS011;10108;50.142;8.724;2023-03-19T11:59:18;8.82;;;4.57;;
19891;SDS011;10108;50.142;8.724;2023-03-19T12:09:49;7.20;;;4.15;;
19891;SDS011;10108;50.142;8.724;2023-03-19T12:12:24;7.97;;;3.95;;
19891;SDS011;10108;50.142;8.724;2023-03-19T12:15:11;5.15;;;3.97;;
19891;SDS011;10108;50.142;8.724;2023-03-19T12:17:47;7.72;;;4.03;;
19891;SDS011;10108;50.142;8.724;2023-03-19T12:26:32;5.72;;;4.00;;
19891;SDS011;10108;50.142;8.724;2023-03-19T12:29:25;8.05;;;4.43;;
19891;SDS011;10108;50.142;8.724;2023-03-19T12:34:54;6.85;;;4.35;;
19891;SDS011;10108;50.142;8.724;2023-03-19T12:42:53;7.20;;;4.90;;
19891;SDS011;10108;50.142;8.724;2023-03-19T12:45:27;8.75;;;5.10;;
19891;SDS011;10108;50.142;8.724;2023-03-19T12:50:39;7.43;;;4.47;;
19891;SDS011;10108;50.142;8.724;2023-03-19T12:53:14;8.32;;;4.85;;
19891;SDS011;10108;50.142;8.724;2023-03-19T12:55:56;8.05;;;4.75;;
19891;SDS011;10108;50.142;8.724;2023-03-19T12:58:45;7.47;;;5.28;;
19891;SDS011;10108;50.142;8.724;2023-03-19T13:01:43;11.85;;;5.47;;
19891;SDS011;10108;50.142;8.724;2023-03-19T13:04:19;10.55;;;5.65;;
19891;SDS011;10108;50.142;8.724;2023-03-19T13:06:55;10.68;;;5.35;;
19891;SDS011;10108;50.142;8.724;2023-03-19T13:14:48;10.38;;;5.68;;
19891;SDS011;10108;50.142;8.724;2023-03-19T13:22:46;11.85;;;6.18;;
19891;SDS011;10108;50.142;8.724;2023-03-19T13:25:15;11.07;;;5.70;;
19891;SDS011;10108;50.142;8.724;2023-03-19T13:27:42;12.10;;;5.97;;
19891;SDS011;10108;50.142;8.724;2023-03-19T13:37:49;10.63;;;4.88;;
19891;SDS011;10108;50.142;8.724;2023-03-19T13:43:04;7.07;;;4.35;;
19891;SDS011;10108;50.142;8.724;2023-03-19T13:45:44;7.38;;;4.18;;
19891;SDS011;10108;50.142;8.724;2023-03-19T13:50:54;7.28;;;4.10;;
19891;SDS011;10108;50.142;8.724;2023-03-19T13:55:57;8.20;;;4.80;;
19891;SDS011;10108;50.142;8.724;2023-03-19T13:58:24;7.95;;;4.60;;
19891;SDS011;10108;50.142;8.724;2023-03-19T14:01:11;6.88;;;4.60;;
19891;SDS011;10108;50.142;8.724;2023-03-19T14:03:51;7.75;;;4.55;;
19891;SDS011;10108;50.142;8.724;2023-03-19T14:06:28;5.43;;;4.25;;
19891;SDS011;10108;50.142;8.724;2023-03-19T14:08:56;7.07;;;4.20;;
19891;SDS011;10108;50.142;8.724;2023-03-19T14:11:23;7.70;;;4.55;;
19891;SDS011;10108;50.142;8.724;2023-03-19T14:13:51;8.80;;;4.60;;
19891;SDS011;10108;50.142;8.724;2023-03-19T14:16:21;7.07;;;4.30;;
19891;SDS011;10108;50.142;8.724;2023-03-19T14:18:49;6.57;;;4.35;;
19891;SDS011;10108;50.142;8.724;2023-03-19T14:21:30;6.45;;;4.40;;
19891;SDS011;10108;50.142;8.724;2023-03-19T14:23:59;7.05;;;4.30;;
19891;SDS011;10108;50.142;8.724;2023-03-19T14:26:43;6.88;;;4.07;;
19891;SDS011;10108;50.142;8.724;2023-03-19T14:29:10;7.57;;;4.53;;
19891;SDS011;10108;50.142;8.724;2023-03-19T14:31:54;5.57;;;4.07;;
19891;SDS011;10108;50.142;8.724;2023-03-19T14:36:57;7.10;;;5.18;;
19891;SDS011;10108;50.142;8.724;2023-03-19T14:39:26;8.40;;;5.70;;
19891;SDS011;10108;50.142;8.724;2023-03-19T14:41:57;8.98;;;5.78;;
19891;SDS011;10108;50.142;8.724;2023-03-19T14:47:09;6.60;;;5.50;;
19891;SDS011;10108;50.142;8.724;2023-03-19T14:54:41;7.85;;;5.22;;
19891;SDS011;10108;50.142;8.724;2023-03-19T14:57:17;7.43;;;5.00;;
19891;SDS011;10108;50.142;8.724;2023-03-19T14:59:43;6.63;;;4.85;;
19891;SDS011;10108;50.142;8.724;2023-03-19T15:04:45;6.90;;;5.00;;
19891;SDS011;10108;50.142;8.724;2023-03-19T15:07:17;6.97;;;4.82;;
19891;SDS011;10108;50.142;8.724;2023-03-19T15:09:45;7.88;;;4.93;;
19891;SDS011;10108;50.142;8.724;2023-03-19T15:15:11;8.25;;;4.90;;
19891;SDS011;10108;50.142;8.724;2023-03-19T15:17:40;5.97;;;4.53;;
19891;SDS011;10108;50.142;8.724;2023-03-19T15:22:40;7.72;;;4.60;;
19891;SDS011;10108;50.142;8.724;2023-03-19T15:25:11;7.18;;;4.47;;
19891;SDS011;10108;50.142;8.724;2023-03-19T15:27:37;7.78;;;4.40;;
19891;SDS011;10108;50.142;8.724;2023-03-19T15:32:45;6.03;;;4.10;;
19891;SDS011;10108;50.142;8.724;2023-03-19T15:35:12;6.30;;;4.40;;
19891;SDS011;10108;50.142;8.724;2023-03-19T15:37:39;6.22;;;4.22;;
19891;SDS011;10108;50.142;8.724;2023-03-19T15:40:08;6.03;;;4.22;;
19891;SDS011;10108;50.142;8.724;2023-03-19T15:42:35;5.60;;;4.22;;
19891;SDS011;10108;50.142;8.724;2023-03-19T15:45:05;7.45;;;4.55;;
19891;SDS011;10108;50.142;8.724;2023-03-19T15:47:32;6.65;;;4.15;;
19891;SDS011;10108;50.142;8.724;2023-03-19T15:52:26;6.45;;;4.15;;
19891;SDS011;10108;50.142;8.724;2023-03-19T15:54:55;4.90;;;3.75;;
19891;SDS011;10108;50.142;8.724;2023-03-19T15:57:22;6.90;;;4.45;;
19891;SDS011;10108;50.142;8.724;2023-03-19T15:59:50;6.97;;;4.20;;
19891;SDS011;10108;50.142;8.724;2023-03-19T16:02:24;7.70;;;4.38;;
19891;SDS011;10108;50.142;8.724;2023-03-19T16:04:52;8.43;;;4.53;;
19891;SDS011;10108;50.142;8.724;2023-03-19T16:07:23;7.75;;;4.53;;
19891;SDS011;10108;50.142;8.724;2023-03-19T16:09:51;7.65;;;4.35;;
19891;SDS011;10108;50.142;8.724;2023-03-19T16:12:27;7.25;;;4.15;;
19891;SDS011;10108;50.142;8.724;2023-03-19T16:14:56;6.95;;;4.15;;
19891;SDS011;10108;50.142;8.724;2023-03-19T16:17:33;8.70;;;4.25;;
19891;SDS011;10108;50.142;8.724;2023-03-19T16:20:00;9.27;;;4.45;;
19891;SDS011;10108;50.142;8.724;2023-03-19T16:22:28;7.60;;;4.20;;
19891;SDS011;10108;50.142;8.724;2023-03-19T16:24:56;8.32;;;4.63;;
19891;SDS011;10108;50.142;8.724;2023-03-19T16:27:33;6.60;;;4.00;;
19891;SDS011;10108;50.142;8.724;2023-03-19T16:30:02;6.13;;;3.90;;
19891;SDS011;10108;50.142;8.724;2023-03-19T16:32:39;6.72;;;4.35;;
19891;SDS011;10108;50.142;8.724;2023-03-19T16:35:13;6.13;;;4.35;;
19891;SDS011;10108;50.142;8.724;2023-03-19T16:37:47;7.85;;;4.47;;
19891;SDS011;10108;50.142;8.724;2023-03-19T16:42:45;7.22;;;4.40;;
19891;SDS011;10108;50.142;8.724;2023-03-19T16:45:25;6.60;;;4.10;;
19891;SDS011;10108;50.142;8.724;2023-03-19T16:47:56;5.72;;;3.83;;
19891;SDS011;10108;50.142;8.724;2023-03-19T16:50:39;5.53;;;3.75;;
19891;SDS011;10108;50.142;8.724;2023-03-19T16:53:23;6.13;;;3.72;;
19891;SDS011;10108;50.142;8.724;2023-03-19T16:55:53;4.65;;;3.90;;
19891;SDS011;10108;50.142;8.724;2023-03-19T17:01:03;3.90;;;3.50;;